sensor_id;sensor_type;location;lat;lon;timestamp;P1;durP1;ratioP1;P2;durP2;ratioP2
76167;SDS011;64927;48.214;16.378;2023-02-16T00:01:25;96.50;;;49.60;;
76167;SDS011;64927;48.214;16.378;2023-02-16T00:03:53;100.28;;;52.97;;
76167;SDS011;64927;48.214;16.378;2023-02-16T00:06:20;106.35;;;54.20;;
76167;SDS011;64927;48.214;16.378;2023-02-16T00:08:48;93.55;;;50.10;;
76167;SDS011;64927;48.214;16.378;2023-02-16T00:11:19;99.10;;;53.53;;
76167;SDS011;64927;48.214;16.378;2023-02-16T00:14:11;100.45;;;53.92;;
76167;SDS011;64927;48.214;16.378;2023-02-16T00:16:40;95.38;;;51.17;;
76167;SDS011;64927;48.214;16.378;2023-02-16T00:21:44;96.28;;;52.03;;
76167;SDS011;64927;48.214;16.378;2023-02-16T00:24:10;102.00;;;53.60;;
76167;SDS011;64927;48.214;16.378;2023-02-16T00:26:36;94.22;;;52.78;;
76167;SDS011;64927;48.214;16.378;2023-02-16T00:29:04;107.97;;;54.38;;
76167;SDS011;64927;48.214;16.378;2023-02-16T00:31:29;93.10;;;51.85;;
76167;SDS011;64927;48.214;16.378;2023-02-16T00:33:59;94.72;;;50.20;;
76167;SDS011;64927;48.214;16.378;2023-02-16T00:36:39;106.70;;;53.88;;
76167;SDS011;64927;48.214;16.378;2023-02-16T00:39:05;103.93;;;54.50;;
76167;SDS011;64927;48.214;16.378;2023-02-16T00:41:31;110.47;;;56.72;;
76167;SDS011;64927;48.214;16.378;2023-02-16T00:44:34;110.35;;;54.03;;
76167;SDS011;64927;48.214;16.378;2023-02-16T00:49:52;109.35;;;53.33;;
76167;SDS011;64927;48.214;16.378;2023-02-16T00:54:58;111.57;;;53.28;;
76167;SDS011;64927;48.214;16.378;2023-02-16T00:57:26;114.47;;;55.67;;
76167;SDS011;64927;48.214;16.378;2023-02-16T00:59:59;112.15;;;58.08;;
76167;SDS011;64927;48.214;16.378;2023-02-16T01:02:38;119.90;;;58.28;;
76167;SDS011;64927;48.214;16.378;2023-02-16T01:05:07;127.22;;;60.22;;
76167;SDS011;64927;48.214;16.378;2023-02-16T01:07:32;128.25;;;61.33;;
76167;SDS011;64927;48.214;16.378;2023-02-16T01:10:17;129.73;;;59.42;;
76167;SDS011;64927;48.214;16.378;2023-02-16T01:13:02;132.48;;;62.78;;
76167;SDS011;64927;48.214;16.378;2023-02-16T01:15:28;130.93;;;59.80;;
76167;SDS011;64927;48.214;16.378;2023-02-16T01:17:54;137.57;;;63.35;;
76167;SDS011;64927;48.214;16.378;2023-02-16T01:20:21;133.38;;;59.97;;
76167;SDS011;64927;48.214;16.378;2023-02-16T01:22:48;142.65;;;63.47;;
76167;SDS011;64927;48.214;16.378;2023-02-16T01:25:14;145.48;;;65.55;;
76167;SDS011;64927;48.214;16.378;2023-02-16T01:27:40;157.93;;;67.90;;
76167;SDS011;64927;48.214;16.378;2023-02-16T01:30:10;156.35;;;67.65;;
76167;SDS011;64927;48.214;16.378;2023-02-16T01:32:41;225.45;;;75.45;;
76167;SDS011;64927;48.214;16.378;2023-02-16T01:35:08;229.90;;;79.47;;
76167;SDS011;64927;48.214;16.378;2023-02-16T01:37:34;469.88;;;98.18;;
76167;SDS011;64927;48.214;16.378;2023-02-16T01:40:00;493.00;;;108.57;;
76167;SDS011;64927;48.214;16.378;2023-02-16T01:45:33;539.80;;;103.88;;
76167;SDS011;64927;48.214;16.378;2023-02-16T01:48:03;427.48;;;98.50;;
76167;SDS011;64927;48.214;16.378;2023-02-16T01:50:42;593.28;;;115.88;;
76167;SDS011;64927;48.214;16.378;2023-02-16T01:53:19;445.05;;;97.03;;
76167;SDS011;64927;48.214;16.378;2023-02-16T01:55:51;575.38;;;116.20;;
76167;SDS011;64927;48.214;16.378;2023-02-16T02:03:15;220.15;;;77.65;;
76167;SDS011;64927;48.214;16.378;2023-02-16T02:06:12;814.45;;;120.07;;
76167;SDS011;64927;48.214;16.378;2023-02-16T02:11:35;491.38;;;103.88;;
76167;SDS011;64927;48.214;16.378;2023-02-16T02:14:06;494.83;;;107.03;;
76167;SDS011;64927;48.214;16.378;2023-02-16T02:16:40;463.25;;;99.35;;
76167;SDS011;64927;48.214;16.378;2023-02-16T02:19:15;383.95;;;92.53;;
76167;SDS011;64927;48.214;16.378;2023-02-16T02:36:05;307.52;;;81.38;;
76167;SDS011;64927;48.214;16.378;2023-02-16T02:38:43;291.33;;;85.82;;
76167;SDS011;64927;48.214;16.378;2023-02-16T02:41:30;332.10;;;86.00;;
76167;SDS011;64927;48.214;16.378;2023-02-16T02:44:34;230.00;;;79.57;;
76167;SDS011;64927;48.214;16.378;2023-02-16T02:47:17;213.25;;;74.53;;
76167;SDS011;64927;48.214;16.378;2023-02-16T02:49:49;186.82;;;72.85;;
76167;SDS011;64927;48.214;16.378;2023-02-16T02:52:16;196.15;;;74.45;;
76167;SDS011;64927;48.214;16.378;2023-02-16T02:54:43;174.63;;;69.30;;
76167;SDS011;64927;48.214;16.378;2023-02-16T03:00:20;252.43;;;80.13;;
76167;SDS011;64927;48.214;16.378;2023-02-16T03:03:27;203.80;;;78.78;;
76167;SDS011;64927;48.214;16.378;2023-02-16T03:08:47;178.70;;;70.90;;
76167;SDS011;64927;48.214;16.378;2023-02-16T03:11:25;178.07;;;70.63;;
76167;SDS011;64927;48.214;16.378;2023-02-16T03:14:17;174.45;;;68.20;;
76167;SDS011;64927;48.214;16.378;2023-02-16T03:17:00;146.15;;;64.22;;
76167;SDS011;64927;48.214;16.378;2023-02-16T03:19:49;157.57;;;66.63;;
76167;SDS011;64927;48.214;16.378;2023-02-16T03:22:34;160.48;;;66.53;;
76167;SDS011;64927;48.214;16.378;2023-02-16T03:25:24;138.40;;;54.30;;
76167;SDS011;64927;48.214;16.378;2023-02-16T03:28:14;146.30;;;63.13;;
76167;SDS011;64927;48.214;16.378;2023-02-16T03:31:02;154.27;;;65.30;;
76167;SDS011;64927;48.214;16.378;2023-02-16T03:33:30;154.05;;;66.72;;
76167;SDS011;64927;48.214;16.378;2023-02-16T03:35:56;152.23;;;63.88;;
76167;SDS011;64927;48.214;16.378;2023-02-16T03:38:23;145.43;;;63.83;;
76167;SDS011;64927;48.214;16.378;2023-02-16T03:40:50;132.95;;;61.75;;
76167;SDS011;64927;48.214;16.378;2023-02-16T03:43:16;133.30;;;61.35;;
76167;SDS011;64927;48.214;16.378;2023-02-16T03:45:43;123.75;;;58.55;;
76167;SDS011;64927;48.214;16.378;2023-02-16T03:48:10;116.07;;;56.33;;
76167;SDS011;64927;48.214;16.378;2023-02-16T03:50:37;107.65;;;54.78;;
76167;SDS011;64927;48.214;16.378;2023-02-16T03:53:03;108.18;;;54.85;;
76167;SDS011;64927;48.214;16.378;2023-02-16T03:58:01;97.88;;;50.28;;
76167;SDS011;64927;48.214;16.378;2023-02-16T04:00:27;101.88;;;51.25;;
76167;SDS011;64927;48.214;16.378;2023-02-16T04:02:54;102.68;;;51.70;;
76167;SDS011;64927;48.214;16.378;2023-02-16T04:05:19;109.07;;;51.90;;
76167;SDS011;64927;48.214;16.378;2023-02-16T04:07:45;101.18;;;50.60;;
76167;SDS011;64927;48.214;16.378;2023-02-16T04:10:11;101.68;;;49.90;;
76167;SDS011;64927;48.214;16.378;2023-02-16T04:12:37;109.43;;;50.95;;
76167;SDS011;64927;48.214;16.378;2023-02-16T04:15:07;96.85;;;51.15;;
76167;SDS011;64927;48.214;16.378;2023-02-16T04:17:35;93.10;;;50.65;;
76167;SDS011;64927;48.214;16.378;2023-02-16T04:20:01;100.15;;;50.47;;
76167;SDS011;64927;48.214;16.378;2023-02-16T04:22:27;105.50;;;51.35;;
76167;SDS011;64927;48.214;16.378;2023-02-16T04:24:53;106.07;;;53.65;;
76167;SDS011;64927;48.214;16.378;2023-02-16T04:27:18;105.95;;;53.10;;
76167;SDS011;64927;48.214;16.378;2023-02-16T04:29:46;106.20;;;53.28;;
76167;SDS011;64927;48.214;16.378;2023-02-16T04:32:15;100.97;;;48.97;;
76167;SDS011;64927;48.214;16.378;2023-02-16T04:34:41;98.82;;;49.58;;
76167;SDS011;64927;48.214;16.378;2023-02-16T04:37:06;93.18;;;48.35;;
76167;SDS011;64927;48.214;16.378;2023-02-16T04:39:32;87.50;;;47.15;;
76167;SDS011;64927;48.214;16.378;2023-02-16T04:41:58;90.72;;;46.22;;
76167;SDS011;64927;48.214;16.378;2023-02-16T04:44:23;77.95;;;42.13;;
76167;SDS011;64927;48.214;16.378;2023-02-16T04:46:49;77.28;;;40.95;;
76167;SDS011;64927;48.214;16.378;2023-02-16T04:49:15;82.38;;;42.13;;
76167;SDS011;64927;48.214;16.378;2023-02-16T04:51:40;75.93;;;39.67;;
76167;SDS011;64927;48.214;16.378;2023-02-16T04:54:10;81.53;;;42.38;;
76167;SDS011;64927;48.214;16.378;2023-02-16T04:56:38;76.07;;;41.20;;
76167;SDS011;64927;48.214;16.378;2023-02-16T04:59:04;87.88;;;45.95;;
76167;SDS011;64927;48.214;16.378;2023-02-16T05:01:29;91.90;;;47.55;;
76167;SDS011;64927;48.214;16.378;2023-02-16T05:03:55;92.65;;;48.17;;
76167;SDS011;64927;48.214;16.378;2023-02-16T05:06:21;98.40;;;48.78;;
76167;SDS011;64927;48.214;16.378;2023-02-16T05:08:49;94.32;;;46.53;;
76167;SDS011;64927;48.214;16.378;2023-02-16T05:11:17;95.72;;;46.55;;
76167;SDS011;64927;48.214;16.378;2023-02-16T05:14:04;87.63;;;43.80;;
76167;SDS011;64927;48.214;16.378;2023-02-16T05:16:48;80.47;;;43.60;;
76167;SDS011;64927;48.214;16.378;2023-02-16T05:19:14;90.47;;;43.60;;
76167;SDS011;64927;48.214;16.378;2023-02-16T05:21:40;80.82;;;41.65;;
76167;SDS011;64927;48.214;16.378;2023-02-16T05:24:09;80.05;;;42.85;;
76167;SDS011;64927;48.214;16.378;2023-02-16T05:26:37;81.20;;;41.58;;
76167;SDS011;64927;48.214;16.378;2023-02-16T05:29:04;78.50;;;41.45;;
76167;SDS011;64927;48.214;16.378;2023-02-16T05:31:30;78.35;;;38.83;;
76167;SDS011;64927;48.214;16.378;2023-02-16T05:33:55;81.72;;;40.95;;
76167;SDS011;64927;48.214;16.378;2023-02-16T05:36:21;69.43;;;36.13;;
76167;SDS011;64927;48.214;16.378;2023-02-16T05:38:47;68.40;;;36.65;;
76167;SDS011;64927;48.214;16.378;2023-02-16T05:41:13;74.35;;;40.05;;
76167;SDS011;64927;48.214;16.378;2023-02-16T05:43:54;76.65;;;39.38;;
76167;SDS011;64927;48.214;16.378;2023-02-16T05:46:25;71.25;;;35.80;;
76167;SDS011;64927;48.214;16.378;2023-02-16T05:48:51;72.57;;;36.28;;
76167;SDS011;64927;48.214;16.378;2023-02-16T05:51:17;66.63;;;35.95;;
76167;SDS011;64927;48.214;16.378;2023-02-16T05:53:46;72.70;;;37.15;;
76167;SDS011;64927;48.214;16.378;2023-02-16T05:56:12;69.65;;;36.17;;
76167;SDS011;64927;48.214;16.378;2023-02-16T05:58:38;66.38;;;35.55;;
76167;SDS011;64927;48.214;16.378;2023-02-16T06:01:04;60.88;;;34.53;;
76167;SDS011;64927;48.214;16.378;2023-02-16T06:03:32;79.15;;;41.60;;
76167;SDS011;64927;48.214;16.378;2023-02-16T06:05:59;69.80;;;39.88;;
76167;SDS011;64927;48.214;16.378;2023-02-16T06:08:26;67.22;;;35.42;;
76167;SDS011;64927;48.214;16.378;2023-02-16T06:10:52;63.85;;;34.72;;
76167;SDS011;64927;48.214;16.378;2023-02-16T06:13:18;68.82;;;36.90;;
76167;SDS011;64927;48.214;16.378;2023-02-16T06:15:49;68.78;;;35.90;;
76167;SDS011;64927;48.214;16.378;2023-02-16T06:18:20;68.55;;;35.70;;
76167;SDS011;64927;48.214;16.378;2023-02-16T06:20:46;67.63;;;34.55;;
76167;SDS011;64927;48.214;16.378;2023-02-16T06:23:12;74.40;;;37.13;;
76167;SDS011;64927;48.214;16.378;2023-02-16T06:25:47;71.82;;;38.17;;
76167;SDS011;64927;48.214;16.378;2023-02-16T06:28:16;67.22;;;35.08;;
76167;SDS011;64927;48.214;16.378;2023-02-16T06:30:42;61.63;;;33.97;;
76167;SDS011;64927;48.214;16.378;2023-02-16T06:33:08;67.85;;;33.20;;
76167;SDS011;64927;48.214;16.378;2023-02-16T06:35:33;69.68;;;34.70;;
76167;SDS011;64927;48.214;16.378;2023-02-16T06:37:59;70.82;;;33.80;;
76167;SDS011;64927;48.214;16.378;2023-02-16T06:40:25;73.18;;;35.35;;
76167;SDS011;64927;48.214;16.378;2023-02-16T06:42:53;71.78;;;34.47;;
76167;SDS011;64927;48.214;16.378;2023-02-16T06:45:18;69.05;;;34.22;;
76167;SDS011;64927;48.214;16.378;2023-02-16T06:47:44;64.45;;;34.42;;
76167;SDS011;64927;48.214;16.378;2023-02-16T06:50:12;62.80;;;34.47;;
76167;SDS011;64927;48.214;16.378;2023-02-16T06:52:38;67.50;;;34.53;;
76167;SDS011;64927;48.214;16.378;2023-02-16T06:55:04;69.95;;;35.05;;
76167;SDS011;64927;48.214;16.378;2023-02-16T06:57:33;64.78;;;34.95;;
76167;SDS011;64927;48.214;16.378;2023-02-16T06:59:58;68.18;;;36.95;;
76167;SDS011;64927;48.214;16.378;2023-02-16T07:02:24;70.47;;;35.13;;
76167;SDS011;64927;48.214;16.378;2023-02-16T07:04:50;69.82;;;37.50;;
76167;SDS011;64927;48.214;16.378;2023-02-16T07:07:16;69.30;;;35.08;;
76167;SDS011;64927;48.214;16.378;2023-02-16T07:09:43;70.22;;;35.65;;
76167;SDS011;64927;48.214;16.378;2023-02-16T07:12:09;68.43;;;35.92;;
76167;SDS011;64927;48.214;16.378;2023-02-16T07:14:35;66.22;;;34.83;;
76167;SDS011;64927;48.214;16.378;2023-02-16T07:17:03;72.90;;;37.10;;
76167;SDS011;64927;48.214;16.378;2023-02-16T07:19:29;64.78;;;35.40;;
76167;SDS011;64927;48.214;16.378;2023-02-16T07:22:02;62.72;;;34.40;;
76167;SDS011;64927;48.214;16.378;2023-02-16T07:24:29;70.45;;;37.00;;
76167;SDS011;64927;48.214;16.378;2023-02-16T07:26:55;65.50;;;35.67;;
76167;SDS011;64927;48.214;16.378;2023-02-16T07:29:20;60.63;;;33.60;;
76167;SDS011;64927;48.214;16.378;2023-02-16T07:31:46;65.40;;;35.20;;
76167;SDS011;64927;48.214;16.378;2023-02-16T07:34:12;61.58;;;35.00;;
76167;SDS011;64927;48.214;16.378;2023-02-16T07:36:37;69.07;;;34.92;;
76167;SDS011;64927;48.214;16.378;2023-02-16T07:39:03;64.05;;;35.00;;
76167;SDS011;64927;48.214;16.378;2023-02-16T07:41:29;67.13;;;37.88;;
76167;SDS011;64927;48.214;16.378;2023-02-16T07:43:54;65.65;;;36.88;;
76167;SDS011;64927;48.214;16.378;2023-02-16T07:46:20;72.35;;;37.80;;
76167;SDS011;64927;48.214;16.378;2023-02-16T07:48:46;71.63;;;37.97;;
76167;SDS011;64927;48.214;16.378;2023-02-16T07:51:19;66.57;;;36.15;;
76167;SDS011;64927;48.214;16.378;2023-02-16T07:53:48;68.80;;;36.80;;
76167;SDS011;64927;48.214;16.378;2023-02-16T07:56:24;70.93;;;36.05;;
76167;SDS011;64927;48.214;16.378;2023-02-16T07:58:52;66.97;;;37.90;;
76167;SDS011;64927;48.214;16.378;2023-02-16T08:01:18;65.65;;;37.45;;
76167;SDS011;64927;48.214;16.378;2023-02-16T08:03:44;67.43;;;35.65;;
76167;SDS011;64927;48.214;16.378;2023-02-16T08:06:10;72.75;;;37.20;;
76167;SDS011;64927;48.214;16.378;2023-02-16T08:08:39;63.78;;;35.55;;
76167;SDS011;64927;48.214;16.378;2023-02-16T08:11:15;69.80;;;40.88;;
76167;SDS011;64927;48.214;16.378;2023-02-16T08:13:43;62.23;;;35.87;;
76167;SDS011;64927;48.214;16.378;2023-02-16T08:16:11;74.13;;;38.10;;
76167;SDS011;64927;48.214;16.378;2023-02-16T08:18:41;71.15;;;40.03;;
76167;SDS011;64927;48.214;16.378;2023-02-16T08:21:14;73.38;;;39.30;;
76167;SDS011;64927;48.214;16.378;2023-02-16T08:24:03;67.35;;;37.45;;
76167;SDS011;64927;48.214;16.378;2023-02-16T08:26:33;70.22;;;38.30;;
76167;SDS011;64927;48.214;16.378;2023-02-16T08:29:04;67.93;;;36.95;;
76167;SDS011;64927;48.214;16.378;2023-02-16T08:31:31;69.68;;;39.30;;
76167;SDS011;64927;48.214;16.378;2023-02-16T08:33:59;69.97;;;40.58;;
76167;SDS011;64927;48.214;16.378;2023-02-16T08:36:29;70.47;;;37.45;;
76167;SDS011;64927;48.214;16.378;2023-02-16T08:39:00;66.95;;;38.05;;
76167;SDS011;64927;48.214;16.378;2023-02-16T08:41:29;67.25;;;39.13;;
76167;SDS011;64927;48.214;16.378;2023-02-16T08:43:57;61.80;;;36.05;;
76167;SDS011;64927;48.214;16.378;2023-02-16T08:46:25;60.45;;;35.22;;
76167;SDS011;64927;48.214;16.378;2023-02-16T08:48:57;65.50;;;36.85;;
76167;SDS011;64927;48.214;16.378;2023-02-16T08:51:24;62.95;;;35.28;;
76167;SDS011;64927;48.214;16.378;2023-02-16T08:53:57;65.85;;;36.28;;
76167;SDS011;64927;48.214;16.378;2023-02-16T08:56:24;62.67;;;36.40;;
76167;SDS011;64927;48.214;16.378;2023-02-16T08:58:50;67.38;;;37.42;;
76167;SDS011;64927;48.214;16.378;2023-02-16T09:01:16;64.30;;;35.40;;
76167;SDS011;64927;48.214;16.378;2023-02-16T09:03:43;61.80;;;36.63;;
76167;SDS011;64927;48.214;16.378;2023-02-16T09:06:11;65.35;;;35.35;;
76167;SDS011;64927;48.214;16.378;2023-02-16T09:08:38;62.45;;;35.47;;
76167;SDS011;64927;48.214;16.378;2023-02-16T09:11:04;58.95;;;35.75;;
76167;SDS011;64927;48.214;16.378;2023-02-16T09:13:33;61.58;;;36.35;;
76167;SDS011;64927;48.214;16.378;2023-02-16T09:16:03;68.88;;;37.10;;
76167;SDS011;64927;48.214;16.378;2023-02-16T09:18:30;68.18;;;36.00;;
76167;SDS011;64927;48.214;16.378;2023-02-16T09:20:57;63.05;;;34.70;;
76167;SDS011;64927;48.214;16.378;2023-02-16T09:23:27;64.80;;;35.83;;
76167;SDS011;64927;48.214;16.378;2023-02-16T09:25:53;63.35;;;35.58;;
76167;SDS011;64927;48.214;16.378;2023-02-16T09:28:18;56.63;;;33.40;;
76167;SDS011;64927;48.214;16.378;2023-02-16T09:30:45;70.18;;;36.72;;
76167;SDS011;64927;48.214;16.378;2023-02-16T09:33:11;59.28;;;34.95;;
76167;SDS011;64927;48.214;16.378;2023-02-16T09:35:37;57.95;;;34.70;;
76167;SDS011;64927;48.214;16.378;2023-02-16T09:38:03;64.10;;;34.97;;
76167;SDS011;64927;48.214;16.378;2023-02-16T09:40:29;58.13;;;32.85;;
76167;SDS011;64927;48.214;16.378;2023-02-16T09:45:31;61.63;;;35.70;;
76167;SDS011;64927;48.214;16.378;2023-02-16T09:48:09;68.28;;;35.53;;
76167;SDS011;64927;48.214;16.378;2023-02-16T09:50:54;63.85;;;34.90;;
76167;SDS011;64927;48.214;16.378;2023-02-16T09:53:34;71.07;;;36.20;;
76167;SDS011;64927;48.214;16.378;2023-02-16T09:59:01;71.95;;;35.75;;
76167;SDS011;64927;48.214;16.378;2023-02-16T10:01:31;60.70;;;35.15;;
76167;SDS011;64927;48.214;16.378;2023-02-16T10:09:14;61.20;;;35.30;;
76167;SDS011;64927;48.214;16.378;2023-02-16T10:20:00;61.65;;;33.95;;
76167;SDS011;64927;48.214;16.378;2023-02-16T10:23:13;54.55;;;34.00;;
76167;SDS011;64927;48.214;16.378;2023-02-16T10:28:12;62.50;;;34.22;;
76167;SDS011;64927;48.214;16.378;2023-02-16T10:30:41;56.25;;;34.17;;
76167;SDS011;64927;48.214;16.378;2023-02-16T10:33:20;59.53;;;34.97;;
76167;SDS011;64927;48.214;16.378;2023-02-16T10:36:21;65.07;;;35.33;;
76167;SDS011;64927;48.214;16.378;2023-02-16T10:39:08;60.45;;;34.00;;
76167;SDS011;64927;48.214;16.378;2023-02-16T10:41:54;70.18;;;38.85;;
76167;SDS011;64927;48.214;16.378;2023-02-16T10:44:42;56.42;;;33.90;;
76167;SDS011;64927;48.214;16.378;2023-02-16T10:47:20;59.15;;;33.20;;
76167;SDS011;64927;48.214;16.378;2023-02-16T10:50:01;59.28;;;33.42;;
76167;SDS011;64927;48.214;16.378;2023-02-16T10:52:32;68.28;;;36.88;;
76167;SDS011;64927;48.214;16.378;2023-02-16T10:55:02;58.08;;;33.55;;
76167;SDS011;64927;48.214;16.378;2023-02-16T10:57:28;57.85;;;33.42;;
76167;SDS011;64927;48.214;16.378;2023-02-16T10:59:56;57.20;;;33.50;;
76167;SDS011;64927;48.214;16.378;2023-02-16T11:02:26;55.00;;;32.83;;
76167;SDS011;64927;48.214;16.378;2023-02-16T11:05:02;62.47;;;33.08;;
76167;SDS011;64927;48.214;16.378;2023-02-16T11:07:52;54.60;;;32.75;;
76167;SDS011;64927;48.214;16.378;2023-02-16T11:10:22;66.55;;;35.13;;
76167;SDS011;64927;48.214;16.378;2023-02-16T11:13:03;57.33;;;32.58;;
76167;SDS011;64927;48.214;16.378;2023-02-16T11:15:29;60.70;;;33.70;;
76167;SDS011;64927;48.214;16.378;2023-02-16T11:17:57;58.40;;;33.30;;
76167;SDS011;64927;48.214;16.378;2023-02-16T11:25:41;60.03;;;36.75;;
76167;SDS011;64927;48.214;16.378;2023-02-16T11:33:57;59.10;;;34.30;;
76167;SDS011;64927;48.214;16.378;2023-02-16T11:36:42;54.92;;;31.85;;
76167;SDS011;64927;48.214;16.378;2023-02-16T11:44:33;58.75;;;31.55;;
76167;SDS011;64927;48.214;16.378;2023-02-16T11:47:01;49.67;;;31.35;;
76167;SDS011;64927;48.214;16.378;2023-02-16T11:51:57;60.22;;;34.75;;
76167;SDS011;64927;48.214;16.378;2023-02-16T11:54:23;58.90;;;32.63;;
76167;SDS011;64927;48.214;16.378;2023-02-16T11:57:02;61.55;;;32.70;;
76167;SDS011;64927;48.214;16.378;2023-02-16T11:59:31;62.88;;;33.78;;
76167;SDS011;64927;48.214;16.378;2023-02-16T12:02:05;51.85;;;31.63;;
76167;SDS011;64927;48.214;16.378;2023-02-16T12:10:37;57.42;;;33.28;;
76167;SDS011;64927;48.214;16.378;2023-02-16T12:13:24;57.35;;;32.65;;
76167;SDS011;64927;48.214;16.378;2023-02-16T12:21:25;61.42;;;31.63;;
76167;SDS011;64927;48.214;16.378;2023-02-16T12:29:05;49.92;;;32.05;;
76167;SDS011;64927;48.214;16.378;2023-02-16T12:35:08;55.67;;;31.77;;
76167;SDS011;64927;48.214;16.378;2023-02-16T12:45:49;54.58;;;29.65;;
76167;SDS011;64927;48.214;16.378;2023-02-16T12:50:53;58.70;;;33.28;;
76167;SDS011;64927;48.214;16.378;2023-02-16T12:53:24;56.60;;;31.17;;
76167;SDS011;64927;48.214;16.378;2023-02-16T12:56:00;59.35;;;33.35;;
76167;SDS011;64927;48.214;16.378;2023-02-16T12:58:32;55.63;;;31.38;;
76167;SDS011;64927;48.214;16.378;2023-02-16T13:01:02;53.50;;;30.77;;
76167;SDS011;64927;48.214;16.378;2023-02-16T13:03:41;46.97;;;30.88;;
76167;SDS011;64927;48.214;16.378;2023-02-16T13:06:23;55.50;;;31.33;;
76167;SDS011;64927;48.214;16.378;2023-02-16T13:09:00;55.13;;;31.50;;
76167;SDS011;64927;48.214;16.378;2023-02-16T13:11:49;51.35;;;31.98;;
76167;SDS011;64927;48.214;16.378;2023-02-16T13:14:27;51.03;;;29.58;;
76167;SDS011;64927;48.214;16.378;2023-02-16T13:17:01;52.15;;;31.48;;
76167;SDS011;64927;48.214;16.378;2023-02-16T13:23:00;54.70;;;31.27;;
76167;SDS011;64927;48.214;16.378;2023-02-16T13:28:38;66.57;;;32.08;;
76167;SDS011;64927;48.214;16.378;2023-02-16T13:36:55;51.15;;;30.02;;
76167;SDS011;64927;48.214;16.378;2023-02-16T13:45:09;60.50;;;31.15;;
76167;SDS011;64927;48.214;16.378;2023-02-16T13:47:24;53.58;;;32.33;;
76167;SDS011;64927;48.214;16.378;2023-02-16T13:49:57;50.22;;;32.20;;
76167;SDS011;64927;48.214;16.378;2023-02-16T13:52:34;55.55;;;31.42;;
76167;SDS011;64927;48.214;16.378;2023-02-16T13:55:05;50.72;;;30.45;;
76167;SDS011;64927;48.214;16.378;2023-02-16T14:02:57;56.92;;;31.10;;
76167;SDS011;64927;48.214;16.378;2023-02-16T14:05:33;53.75;;;30.95;;
76167;SDS011;64927;48.214;16.378;2023-02-16T14:08:35;57.63;;;33.95;;
76167;SDS011;64927;48.214;16.378;2023-02-16T14:13:25;58.10;;;31.58;;
76167;SDS011;64927;48.214;16.378;2023-02-16T14:16:03;63.47;;;33.72;;
76167;SDS011;64927;48.214;16.378;2023-02-16T14:21:02;58.63;;;32.42;;
76167;SDS011;64927;48.214;16.378;2023-02-16T14:23:32;67.72;;;35.20;;
76167;SDS011;64927;48.214;16.378;2023-02-16T14:26:08;58.83;;;33.70;;
76167;SDS011;64927;48.214;16.378;2023-02-16T14:31:41;68.32;;;35.78;;
76167;SDS011;64927;48.214;16.378;2023-02-16T14:34:26;59.53;;;35.90;;
76167;SDS011;64927;48.214;16.378;2023-02-16T14:39:43;63.00;;;33.28;;
76167;SDS011;64927;48.214;16.378;2023-02-16T14:42:17;61.28;;;33.28;;
76167;SDS011;64927;48.214;16.378;2023-02-16T15:01:13;60.67;;;35.03;;
76167;SDS011;64927;48.214;16.378;2023-02-16T15:03:45;67.07;;;34.45;;
76167;SDS011;64927;48.214;16.378;2023-02-16T15:09:02;61.60;;;33.95;;
76167;SDS011;64927;48.214;16.378;2023-02-16T15:11:39;63.03;;;33.40;;
76167;SDS011;64927;48.214;16.378;2023-02-16T15:14:34;63.22;;;34.85;;
76167;SDS011;64927;48.214;16.378;2023-02-16T15:17:07;62.35;;;35.10;;
76167;SDS011;64927;48.214;16.378;2023-02-16T15:19:34;61.15;;;33.38;;
76167;SDS011;64927;48.214;16.378;2023-02-16T15:22:20;63.53;;;35.40;;
76167;SDS011;64927;48.214;16.378;2023-02-16T15:25:22;60.28;;;35.83;;
76167;SDS011;64927;48.214;16.378;2023-02-16T15:30:33;60.03;;;32.65;;
76167;SDS011;64927;48.214;16.378;2023-02-16T15:33:02;61.83;;;34.75;;
76167;SDS011;64927;48.214;16.378;2023-02-16T15:35:34;65.45;;;32.03;;
76167;SDS011;64927;48.214;16.378;2023-02-16T15:38:22;68.70;;;36.78;;
76167;SDS011;64927;48.214;16.378;2023-02-16T15:40:54;69.65;;;37.10;;
76167;SDS011;64927;48.214;16.378;2023-02-16T15:46:11;67.05;;;36.50;;
76167;SDS011;64927;48.214;16.378;2023-02-16T15:48:48;75.88;;;37.83;;
76167;SDS011;64927;48.214;16.378;2023-02-16T15:51:23;73.20;;;38.25;;
76167;SDS011;64927;48.214;16.378;2023-02-16T15:54:02;71.43;;;38.15;;
76167;SDS011;64927;48.214;16.378;2023-02-16T15:56:33;77.38;;;38.55;;
76167;SDS011;64927;48.214;16.378;2023-02-16T15:59:02;76.10;;;39.08;;
76167;SDS011;64927;48.214;16.378;2023-02-16T16:01:38;74.82;;;36.53;;
76167;SDS011;64927;48.214;16.378;2023-02-16T16:04:05;75.85;;;38.60;;
76167;SDS011;64927;48.214;16.378;2023-02-16T16:06:52;70.18;;;37.05;;
76167;SDS011;64927;48.214;16.378;2023-02-16T16:09:20;77.53;;;37.85;;
76167;SDS011;64927;48.214;16.378;2023-02-16T16:12:00;71.32;;;38.58;;
76167;SDS011;64927;48.214;16.378;2023-02-16T16:14:30;71.78;;;37.00;;
76167;SDS011;64927;48.214;16.378;2023-02-16T16:16:59;73.75;;;37.22;;
76167;SDS011;64927;48.214;16.378;2023-02-16T16:19:34;77.65;;;37.55;;
76167;SDS011;64927;48.214;16.378;2023-02-16T16:22:03;69.13;;;35.45;;
76167;SDS011;64927;48.214;16.378;2023-02-16T16:24:49;71.07;;;37.15;;
76167;SDS011;64927;48.214;16.378;2023-02-16T16:27:26;71.85;;;37.00;;
76167;SDS011;64927;48.214;16.378;2023-02-16T16:30:40;75.43;;;35.40;;
76167;SDS011;64927;48.214;16.378;2023-02-16T16:32:43;76.00;;;38.30;;
76167;SDS011;64927;48.214;16.378;2023-02-16T16:35:29;76.25;;;39.72;;
76167;SDS011;64927;48.214;16.378;2023-02-16T16:40:51;80.60;;;39.55;;
76167;SDS011;64927;48.214;16.378;2023-02-16T16:43:29;78.97;;;40.53;;
76167;SDS011;64927;48.214;16.378;2023-02-16T16:46:19;81.80;;;42.40;;
76167;SDS011;64927;48.214;16.378;2023-02-16T16:48:50;77.85;;;40.30;;
76167;SDS011;64927;48.214;16.378;2023-02-16T16:51:40;73.93;;;39.55;;
76167;SDS011;64927;48.214;16.378;2023-02-16T16:57:03;68.68;;;38.60;;
76167;SDS011;64927;48.214;16.378;2023-02-16T16:59:41;69.97;;;37.55;;
76167;SDS011;64927;48.214;16.378;2023-02-16T17:02:10;80.97;;;40.97;;
76167;SDS011;64927;48.214;16.378;2023-02-16T17:04:35;80.75;;;38.92;;
76167;SDS011;64927;48.214;16.378;2023-02-16T17:07:01;79.13;;;39.65;;
76167;SDS011;64927;48.214;16.378;2023-02-16T17:09:27;74.72;;;37.92;;
76167;SDS011;64927;48.214;16.378;2023-02-16T17:11:53;71.03;;;38.65;;
76167;SDS011;64927;48.214;16.378;2023-02-16T17:14:19;71.97;;;37.50;;
76167;SDS011;64927;48.214;16.378;2023-02-16T17:16:47;75.30;;;37.63;;
76167;SDS011;64927;48.214;16.378;2023-02-16T17:19:17;70.95;;;37.60;;
76167;SDS011;64927;48.214;16.378;2023-02-16T17:21:45;72.90;;;37.53;;
76167;SDS011;64927;48.214;16.378;2023-02-16T17:24:13;73.20;;;38.00;;
76167;SDS011;64927;48.214;16.378;2023-02-16T17:26:41;72.22;;;39.28;;
76167;SDS011;64927;48.214;16.378;2023-02-16T17:29:07;80.55;;;39.38;;